Time;durP1;ratioP1;P1;durP2;ratioP2;P2;SDS_P1;SDS_P2;PMS_P1;PMS_P2;Temp;Humidity;BMP_temperature;BMP_pressure;BME280_temperature;BME280_humidity;BME280_pressure;Samples;Min_cycle;Max_cycle;Signal;HPM_P1;HPM_P2
2022/09/29 00:00:52;;;;;;;15.02;9.40;;;;;;;;;;5050391;28;20040;-59
2022/09/29 00:03:19;;;;;;;10.48;8.50;;;;;;;;;;5045390;28;20056;-59
2022/09/29 00:05:49;;;;;;;15.50;8.27;;;;;;;;;;5045520;28;20025;-59
2022/09/29 00:08:15;;;;;;;15.95;10.32;;;;;;;;;;5032160;28;20430;-59
2022/09/29 00:10:41;;;;;;;15.17;10.07;;;;;;;;;;5051756;28;20100;-57
2022/09/29 00:13:07;;;;;;;12.45;8.60;;;;;;;;;;5042619;28;20364;-58
2022/09/29 00:15:33;;;;;;;11.85;9.73;;;;;;;;;;5036293;28;20056;-59
2022/09/29 00:17:59;;;;;;;12.77;9.57;;;;;;;;;;5038786;28;20068;-59
2022/09/29 00:20:25;;;;;;;14.70;9.23;;;;;;;;;;5031918;28;20471;-59
2022/09/29 00:22:51;;;;;;;10.52;8.90;;;;;;;;;;5032132;28;20028;-58
2022/09/29 00:25:18;;;;;;;14.27;9.25;;;;;;;;;;5038238;28;20089;-59
2022/09/29 00:27:44;;;;;;;16.67;10.05;;;;;;;;;;5031893;28;20426;-59
2022/09/29 00:30:10;;;;;;;15.35;9.52;;;;;;;;;;5031679;28;20037;-59
2022/09/29 00:32:36;;;;;;;13.00;9.20;;;;;;;;;;5036700;28;20095;-57
2022/09/29 00:35:02;;;;;;;12.90;9.48;;;;;;;;;;5045160;28;20084;-59
2022/09/29 00:37:28;;;;;;;13.07;9.48;;;;;;;;;;5057541;28;20021;-59
2022/09/29 00:39:54;;;;;;;14.43;10.18;;;;;;;;;;5057034;28;20025;-57
2022/09/29 00:42:20;;;;;;;14.13;8.88;;;;;;;;;;5051322;28;20541;-59
2022/09/29 00:44:52;;;;;;;14.07;9.27;;;;;;;;;;5051315;28;20040;-59
2022/09/29 00:47:19;;;;;;;9.38;8.45;;;;;;;;;;5041698;28;20033;-58
2022/09/29 00:49:46;;;;;;;13.75;9.48;;;;;;;;;;5038613;28;20487;-58
2022/09/29 00:52:15;;;;;;;14.27;9.65;;;;;;;;;;5051280;28;20545;-59
2022/09/29 00:54:44;;;;;;;12.48;9.13;;;;;;;;;;5041702;28;20100;-59
2022/09/29 00:57:10;;;;;;;12.30;10.57;;;;;;;;;;5043961;28;20025;-59
2022/09/29 00:59:45;;;;;;;13.57;10.70;;;;;;;;;;5030097;28;20029;-59
2022/09/29 01:02:11;;;;;;;12.45;10.45;;;;;;;;;;5036864;28;20032;-57
2022/09/29 01:04:37;;;;;;;15.65;9.98;;;;;;;;;;5041830;28;20570;-56
2022/09/29 01:07:03;;;;;;;15.50;9.70;;;;;;;;;;5046120;28;20399;-57
2022/09/29 01:09:31;;;;;;;12.50;9.68;;;;;;;;;;5046942;28;20589;-59
2022/09/29 01:11:58;;;;;;;14.45;10.45;;;;;;;;;;5035613;28;20121;-59
2022/09/29 01:14:25;;;;;;;13.80;10.15;;;;;;;;;;5035673;28;20232;-58
2022/09/29 01:16:51;;;;;;;13.30;9.95;;;;;;;;;;5044053;28;20053;-57
2022/09/29 01:19:20;;;;;;;11.38;9.63;;;;;;;;;;5035264;28;20029;-58
2022/09/29 01:21:46;;;;;;;12.88;10.15;;;;;;;;;;5036491;28;20091;-58
2022/09/29 01:24:24;;;;;;;13.15;9.73;;;;;;;;;;5045580;28;20475;-59
2022/09/29 01:26:50;;;;;;;;;;;;;;;;;;5042217;28;20057;-57
2022/09/29 01:29:16;;;;;;;16.23;10.95;;;;;;;;;;5033702;28;19960;-59
2022/09/29 01:32:00;;;;;;;14.13;10.13;;;;;;;;;;5036320;28;20036;-57
2022/09/29 01:34:29;;;;;;;15.05;10.80;;;;;;;;;;5040060;28;20025;-56
2022/09/29 01:36:55;;;;;;;15.32;10.38;;;;;;;;;;5051918;28;20057;-56
2022/09/29 01:39:24;;;;;;;17.52;11.30;;;;;;;;;;5054582;28;20063;-56
2022/09/29 01:42:03;;;;;;;12.52;10.25;;;;;;;;;;5051735;28;20479;-57
2022/09/29 01:44:35;;;;;;;13.00;11.05;;;;;;;;;;5054533;28;20029;-58
2022/09/29 01:47:07;;;;;;;16.52;11.25;;;;;;;;;;5046222;28;20029;-59
2022/09/29 01:49:35;;;;;;;13.77;11.00;;;;;;;;;;5053105;28;20104;-56
2022/09/29 01:52:13;;;;;;;14.38;9.95;;;;;;;;;;5051683;28;20037;-58
2022/09/29 01:54:53;;;;;;;14.88;10.10;;;;;;;;;;5042291;28;20107;-55
2022/09/29 01:57:19;;;;;;;15.60;10.30;;;;;;;;;;5054677;28;20096;-58
2022/09/29 01:59:51;;;;;;;16.13;11.18;;;;;;;;;;5045766;28;20049;-58
2022/09/29 02:02:21;;;;;;;13.25;10.20;;;;;;;;;;5068344;28;20116;-58
2022/09/29 02:04:50;;;;;;;16.00;10.95;;;;;;;;;;5074466;28;20032;-58
2022/09/29 02:07:20;;;;;;;13.05;10.07;;;;;;;;;;5049280;28;20457;-58
2022/09/29 02:09:49;;;;;;;12.80;10.18;;;;;;;;;;5050966;28;20090;-58
2022/09/29 02:12:18;;;;;;;15.38;11.38;;;;;;;;;;5050110;28;20036;-58
2022/09/29 02:14:47;;;;;;;12.27;9.52;;;;;;;;;;5034624;28;20025;-58
2022/09/29 02:17:18;;;;;;;13.82;10.32;;;;;;;;;;5034271;28;20056;-58
2022/09/29 02:19:46;;;;;;;15.00;9.95;;;;;;;;;;5033781;28;20076;-59
2022/09/29 02:22:12;;;;;;;12.88;10.25;;;;;;;;;;5034627;28;20033;-58
2022/09/29 02:24:38;;;;;;;12.47;10.10;;;;;;;;;;5034442;28;20037;-59
2022/09/29 02:27:05;;;;;;;13.75;10.07;;;;;;;;;;5034326;28;20034;-59
2022/09/29 02:29:31;;;;;;;;;;;;;;;;;;5075886;23;20103;-54
2022/09/29 02:32:00;;;;;;;14.45;10.48;;;;;;;;;;5053648;28;19999;-53
2022/09/29 02:34:27;;;;;;;13.95;10.40;;;;;;;;;;5053649;28;20045;-56
2022/09/29 02:37:04;;;;;;;11.60;9.82;;;;;;;;;;5053678;28;20151;-55
2022/09/29 02:39:53;;;;;;;15.60;9.95;;;;;;;;;;5048960;28;20025;-56
2022/09/29 02:42:33;;;;;;;20.55;9.93;;;;;;;;;;5033718;28;20017;-54
2022/09/29 02:45:02;;;;;;;16.70;10.82;;;;;;;;;;5033492;28;20029;-54
2022/09/29 02:47:46;;;;;;;13.18;10.57;;;;;;;;;;5033782;28;20369;-53
2022/09/29 02:50:31;;;;;;;16.60;10.07;;;;;;;;;;5032806;28;20075;-58
2022/09/29 02:53:30;;;;;;;13.68;10.52;;;;;;;;;;5024579;28;20109;-56
2022/09/29 02:56:14;;;;;;;16.92;11.38;;;;;;;;;;5001748;28;20037;-53
2022/09/29 02:58:40;;;;;;;16.80;11.13;;;;;;;;;;5033353;28;20030;-53
2022/09/29 03:01:07;;;;;;;17.08;11.55;;;;;;;;;;5030409;28;20036;-56
2022/09/29 03:03:33;;;;;;;15.57;12.10;;;;;;;;;;5033441;28;20025;-55
2022/09/29 03:05:59;;;;;;;16.60;11.98;;;;;;;;;;5033416;28;20267;-54
2022/09/29 03:08:25;;;;;;;13.03;10.93;;;;;;;;;;5027277;28;20037;-56
2022/09/29 03:10:51;;;;;;;18.48;12.07;;;;;;;;;;5032085;28;20260;-56
2022/09/29 03:13:17;;;;;;;15.80;12.13;;;;;;;;;;5030755;28;20021;-53
2022/09/29 03:15:44;;;;;;;14.55;11.48;;;;;;;;;;5033371;28;20519;-56
2022/09/29 03:18:10;;;;;;;16.38;11.07;;;;;;;;;;5031712;28;20060;-53
2022/09/29 03:20:36;;;;;;;20.75;12.98;;;;;;;;;;5031611;28;20052;-53
2022/09/29 03:23:02;;;;;;;19.60;12.05;;;;;;;;;;5031551;28;20038;-56
2022/09/29 03:25:28;;;;;;;17.58;11.90;;;;;;;;;;5032885;28;20526;-54
2022/09/29 03:27:54;;;;;;;16.02;12.27;;;;;;;;;;5032755;28;20037;-53
2022/09/29 03:30:22;;;;;;;18.27;13.02;;;;;;;;;;5032704;28;20116;-53
2022/09/29 03:32:48;;;;;;;16.98;11.80;;;;;;;;;;5030712;28;20025;-54
2022/09/29 03:35:14;;;;;;;15.65;11.70;;;;;;;;;;5032106;28;20052;-55
2022/09/29 03:37:40;;;;;;;13.85;11.55;;;;;;;;;;5032848;28;20491;-57
2022/09/29 03:40:06;;;;;;;23.55;12.80;;;;;;;;;;5029694;28;20032;-54
2022/09/29 03:42:32;;;;;;;14.17;10.80;;;;;;;;;;5032439;28;20029;-55
2022/09/29 03:44:59;;;;;;;15.80;10.32;;;;;;;;;;5031057;28;20283;-55
2022/09/29 03:47:25;;;;;;;12.38;10.45;;;;;;;;;;5032431;28;20025;-53
2022/09/29 03:49:51;;;;;;;11.93;10.27;;;;;;;;;;5032182;28;20022;-54
2022/09/29 03:52:17;;;;;;;17.27;11.65;;;;;;;;;;5032459;28;20021;-54
2022/09/29 03:54:44;;;;;;;15.20;11.00;;;;;;;;;;5030784;28;20040;-59
2022/09/29 03:57:10;;;;;;;15.05;11.45;;;;;;;;;;5031282;28;20127;-56
2022/09/29 03:59:36;;;;;;;16.52;11.25;;;;;;;;;;5030817;28;20033;-58
2022/09/29 04:02:02;;;;;;;18.63;10.65;;;;;;;;;;5032579;28;20116;-58
2022/09/29 04:04:28;;;;;;;17.23;11.60;;;;;;;;;;5031130;28;20059;-58
2022/09/29 04:06:54;;;;;;;14.32;10.95;;;;;;;;;;5032305;28;20515;-58
2022/09/29 04:09:20;;;;;;;13.68;11.25;;;;;;;;;;5032208;28;20096;-57
2022/09/29 04:11:46;;;;;;;13.88;11.13;;;;;;;;;;5032230;28;20117;-57
2022/09/29 04:14:12;;;;;;;18.43;12.20;;;;;;;;;;5031575;28;20566;-57
2022/09/29 04:16:38;;;;;;;12.45;11.10;;;;;;;;;;5030598;28;20018;-59
2022/09/29 04:19:04;;;;;;;17.13;11.55;;;;;;;;;;5032009;28;20033;-50
2022/09/29 04:21:30;;;;;;;19.55;12.52;;;;;;;;;;5032337;28;20021;-50
2022/09/29 04:23:56;;;;;;;14.18;11.63;;;;;;;;;;5032301;28;20029;-50
2022/09/29 04:26:22;;;;;;;17.67;10.85;;;;;;;;;;5030396;28;20097;-50
2022/09/29 04:28:48;;;;;;;17.70;12.82;;;;;;;;;;5031237;28;20065;-50
2022/09/29 04:31:15;;;;;;;13.40;12.00;;;;;;;;;;5030752;28;20459;-52
2022/09/29 04:33:41;;;;;;;14.27;12.43;;;;;;;;;;5031349;28;20102;-51
2022/09/29 04:36:07;;;;;;;16.73;13.57;;;;;;;;;;5029952;28;20022;-50
2022/09/29 04:38:34;;;;;;;19.20;12.43;;;;;;;;;;5031087;28;20030;-66
2022/09/29 04:41:00;;;;;;;21.58;12.85;;;;;;;;;;5031235;28;20025;-65
2022/09/29 04:43:26;;;;;;;22.60;12.95;;;;;;;;;;5029849;28;20526;-64
2022/09/29 04:45:52;;;;;;;13.57;11.82;;;;;;;;;;5031094;28;20025;-64
2022/09/29 04:48:18;;;;;;;17.75;12.63;;;;;;;;;;5030773;28;20026;-64
2022/09/29 04:50:44;;;;;;;14.63;12.05;;;;;;;;;;5031026;28;20021;-52
2022/09/29 04:53:11;;;;;;;14.95;11.07;;;;;;;;;;5030418;28;20021;-53
2022/09/29 04:55:37;;;;;;;15.65;13.10;;;;;;;;;;5030882;28;20488;-55
2022/09/29 04:58:04;;;;;;;16.83;12.55;;;;;;;;;;5030890;28;20040;-56
2022/09/29 05:00:31;;;;;;;15.57;12.32;;;;;;;;;;5029292;28;20037;-53
2022/09/29 05:02:57;;;;;;;18.80;13.05;;;;;;;;;;5030926;28;20035;-53
2022/09/29 05:05:23;;;;;;;17.05;12.40;;;;;;;;;;5030793;28;20071;-55
2022/09/29 05:07:49;;;;;;;14.03;11.87;;;;;;;;;;5030643;28;20025;-54
2022/09/29 05:10:16;;;;;;;16.02;12.05;;;;;;;;;;5030554;28;20266;-58
2022/09/29 05:12:47;;;;;;;15.13;12.45;;;;;;;;;;5027250;28;20029;-57
2022/09/29 05:15:13;;;;;;;17.73;12.15;;;;;;;;;;5030731;28;20029;-56
2022/09/29 05:17:39;;;;;;;15.90;13.35;;;;;;;;;;5030838;28;20029;-56
2022/09/29 05:20:05;;;;;;;22.63;13.00;;;;;;;;;;5030528;28;20045;-55
2022/09/29 05:22:31;;;;;;;17.47;13.07;;;;;;;;;;5030651;28;20084;-58
2022/09/29 05:24:58;;;;;;;18.48;14.43;;;;;;;;;;5030557;28;20030;-58
2022/09/29 05:27:24;;;;;;;17.00;13.60;;;;;;;;;;5029099;28;20030;-57
2022/09/29 05:29:50;;;;;;;15.33;13.67;;;;;;;;;;4981523;28;1407084;-58
2022/09/29 05:32:16;;;;;;;17.58;13.63;;;;;;;;;;5031449;28;20053;-59
2022/09/29 05:34:42;;;;;;;15.83;13.20;;;;;;;;;;5030141;28;20026;-57
2022/09/29 05:37:08;;;;;;;23.08;13.82;;;;;;;;;;5030079;28;20448;-55
2022/09/29 05:39:36;;;;;;;20.60;15.07;;;;;;;;;;5031170;28;20029;-57
2022/09/29 05:42:02;;;;;;;18.50;15.18;;;;;;;;;;5031348;28;20029;-57
2022/09/29 05:44:28;;;;;;;20.35;15.02;;;;;;;;;;5029950;28;20053;-53
2022/09/29 05:46:55;;;;;;;20.00;14.95;;;;;;;;;;5031095;28;20029;-54
2022/09/29 05:49:22;;;;;;;20.50;14.52;;;;;;;;;;5031289;28;20032;-56
2022/09/29 05:51:48;;;;;;;22.77;15.95;;;;;;;;;;5031184;28;20028;-55
2022/09/29 05:54:14;;;;;;;20.98;14.65;;;;;;;;;;5031071;28;20034;-56
2022/09/29 05:56:40;;;;;;;17.70;14.25;;;;;;;;;;5034516;28;20026;-55
2022/09/29 05:59:06;;;;;;;24.80;14.48;;;;;;;;;;5034917;28;20017;-56
2022/09/29 06:01:32;;;;;;;18.20;13.50;;;;;;;;;;5034840;28;20033;-55
2022/09/29 06:03:58;;;;;;;21.10;14.27;;;;;;;;;;5033489;28;20579;-56
2022/09/29 06:06:26;;;;;;;22.98;14.18;;;;;;;;;;5033446;28;20069;-56
2022/09/29 06:08:52;;;;;;;17.15;13.93;;;;;;;;;;5033155;28;20435;-55
2022/09/29 06:11:22;;;;;;;16.63;13.27;;;;;;;;;;5034319;28;20021;-56
2022/09/29 06:13:49;;;;;;;15.95;13.32;;;;;;;;;;5032915;28;20049;-56
2022/09/29 06:16:15;;;;;;;;;;;;;;;;;;5034985;28;20528;-61
2022/09/29 06:18:41;;;;;;;20.08;14.13;;;;;;;;;;5034468;28;19905;-61
2022/09/29 06:21:09;;;;;;;21.80;15.60;;;;;;;;;;5034442;28;20029;-59
2022/09/29 06:23:35;;;;;;;20.60;15.77;;;;;;;;;;5033806;28;20507;-56
2022/09/29 06:26:03;;;;;;;21.03;17.53;;;;;;;;;;5033598;28;20061;-56
2022/09/29 06:28:30;;;;;;;27.67;17.23;;;;;;;;;;5031432;28;20844;-56
2022/09/29 06:31:03;;;;;;;30.15;20.40;;;;;;;;;;5032129;28;20479;-56
2022/09/29 06:33:30;;;;;;;29.98;22.42;;;;;;;;;;5032987;28;20025;-57
2022/09/29 06:38:41;;;;;;;33.08;22.92;;;;;;;;;;5034208;28;20780;-55
2022/09/29 06:41:07;;;;;;;37.85;24.90;;;;;;;;;;5033979;28;20048;-53
2022/09/29 06:43:34;;;;;;;34.07;26.97;;;;;;;;;;5034057;28;20036;-56
2022/09/29 06:46:00;;;;;;;43.40;27.67;;;;;;;;;;5033961;28;20036;-56
2022/09/29 06:48:28;;;;;;;38.80;26.20;;;;;;;;;;5033808;28;20392;-55
2022/09/29 06:50:54;;;;;;;36.40;27.25;;;;;;;;;;5033709;28;20033;-56
2022/09/29 06:53:21;;;;;;;38.47;27.33;;;;;;;;;;5033743;28;20033;-56
2022/09/29 06:55:53;;;;;;;34.33;25.77;;;;;;;;;;5033726;28;20026;-56
2022/09/29 06:58:19;;;;;;;38.63;26.92;;;;;;;;;;5033540;28;20049;-57
2022/09/29 07:00:45;;;;;;;33.47;26.05;;;;;;;;;;5033665;28;20029;-57
2022/09/29 07:03:11;;;;;;;36.70;29.30;;;;;;;;;;5032234;28;20384;-57
2022/09/29 07:05:37;;;;;;;32.03;25.73;;;;;;;;;;5033427;28;20033;-58
2022/09/29 07:08:03;;;;;;;32.22;23.48;;;;;;;;;;5032392;28;20033;-54
2022/09/29 07:10:29;;;;;;;29.83;24.05;;;;;;;;;;5015662;28;20024;-53
2022/09/29 07:12:55;;;;;;;30.92;22.40;;;;;;;;;;5033489;28;20032;-56
2022/09/29 07:15:21;;;;;;;25.23;19.27;;;;;;;;;;5032143;28;20026;-57
2022/09/29 07:17:51;;;;;;;26.48;18.92;;;;;;;;;;5033233;28;20454;-58
2022/09/29 07:20:17;;;;;;;21.75;17.17;;;;;;;;;;5032952;28;20021;-56
2022/09/29 07:22:46;;;;;;;24.17;17.27;;;;;;;;;;5033258;28;20029;-56
2022/09/29 07:25:12;;;;;;;17.80;14.90;;;;;;;;;;5031874;28;20029;-56
2022/09/29 07:27:38;;;;;;;18.45;13.60;;;;;;;;;;5033078;28;20483;-56
2022/09/29 07:30:04;;;;;;;17.33;12.82;;;;;;;;;;5031428;28;20040;-53
2022/09/29 07:32:33;;;;;;;15.93;12.30;;;;;;;;;;5033077;28;20506;-53
2022/09/29 07:34:59;;;;;;;18.30;12.63;;;;;;;;;;5032961;28;20594;-56
2022/09/29 07:37:26;;;;;;;22.75;12.60;;;;;;;;;;5032966;28;20036;-56
2022/09/29 07:39:53;;;;;;;16.52;11.10;;;;;;;;;;5032733;28;20036;-53
2022/09/29 07:42:20;;;;;;;12.17;10.93;;;;;;;;;;5032990;28;20029;-53
2022/09/29 07:44:46;;;;;;;15.93;10.65;;;;;;;;;;5032751;28;20627;-57
2022/09/29 07:47:12;;;;;;;12.02;9.93;;;;;;;;;;5033026;28;20029;-54
2022/09/29 07:49:39;;;;;;;14.80;10.35;;;;;;;;;;5031310;28;20026;-54
2022/09/29 07:52:05;;;;;;;17.17;10.35;;;;;;;;;;5033051;28;20061;-54
2022/09/29 07:54:31;;;;;;;13.60;9.75;;;;;;;;;;5032847;28;20399;-55
2022/09/29 07:56:59;;;;;;;19.13;11.13;;;;;;;;;;5032657;28;20029;-56
2022/09/29 07:59:26;;;;;;;16.70;10.00;;;;;;;;;;5031008;28;20033;-53
2022/09/29 08:01:52;;;;;;;14.63;9.98;;;;;;;;;;5032486;28;20487;-56
2022/09/29 08:04:18;;;;;;;17.73;10.20;;;;;;;;;;5032452;28;20109;-53
2022/09/29 08:06:45;;;;;;;14.45;10.38;;;;;;;;;;5031105;28;20029;-58
2022/09/29 08:09:11;;;;;;;13.50;9.98;;;;;;;;;;5032510;28;20053;-55
2022/09/29 08:11:38;;;;;;;14.67;9.40;;;;;;;;;;5031122;28;20460;-56
2022/09/29 08:14:04;;;;;;;15.02;7.90;;;;;;;;;;5032251;28;20073;-54
2022/09/29 08:16:30;;;;;;;18.02;8.93;;;;;;;;;;5032202;28;20018;-54
2022/09/29 08:18:57;;;;;;;11.15;8.10;;;;;;;;;;5031871;28;20033;-58
2022/09/29 08:21:23;;;;;;;13.07;8.30;;;;;;;;;;5032153;28;20033;-56
2022/09/29 08:23:49;;;;;;;18.38;9.18;;;;;;;;;;5032177;28;20488;-56
2022/09/29 08:26:16;;;;;;;11.93;7.60;;;;;;;;;;5032084;28;20036;-57
2022/09/29 08:28:43;;;;;;;17.83;8.35;;;;;;;;;;5031825;28;20116;-54
2022/09/29 08:31:11;;;;;;;10.85;7.72;;;;;;;;;;5049918;23;20040;-57
2022/09/29 08:33:37;;;;;;;13.38;8.77;;;;;;;;;;5050579;28;20023;-56
2022/09/29 08:36:13;;;;;;;13.95;8.77;;;;;;;;;;5051847;28;20056;-55
2022/09/29 08:38:41;;;;;;;14.15;8.18;;;;;;;;;;5035143;28;20056;-56
2022/09/29 08:41:15;;;;;;;14.23;8.48;;;;;;;;;;5051658;28;20032;-56
2022/09/29 08:43:43;;;;;;;13.30;7.60;;;;;;;;;;5051757;28;20025;-57
2022/09/29 08:46:24;;;;;;;11.02;7.90;;;;;;;;;;5051731;28;20029;-55
2022/09/29 08:48:51;;;;;;;11.98;7.53;;;;;;;;;;5051496;28;20064;-55
2022/09/29 08:51:17;;;;;;;;;;;;;;;;;;5051951;28;20020;-55
2022/09/29 08:53:45;;;;;;;12.48;8.43;;;;;;;;;;5051593;28;20434;-57
2022/09/29 08:56:16;;;;;;;12.38;7.93;;;;;;;;;;5051545;28;20025;-57
2022/09/29 08:58:42;;;;;;;16.58;9.02;;;;;;;;;;5051343;28;20465;-56
2022/09/29 09:01:17;;;;;;;11.57;7.80;;;;;;;;;;5051516;28;20025;-57
2022/09/29 09:04:01;;;;;;;13.55;8.25;;;;;;;;;;5051547;28;20336;-57
2022/09/29 09:06:33;;;;;;;13.10;8.60;;;;;;;;;;5051357;28;20473;-56
2022/09/29 09:09:08;;;;;;;19.25;9.68;;;;;;;;;;5051580;28;20025;-56
2022/09/29 09:11:50;;;;;;;15.25;9.50;;;;;;;;;;5051429;28;20091;-56
2022/09/29 09:14:35;;;;;;;13.55;8.65;;;;;;;;;;5051334;28;20025;-56
2022/09/29 09:17:19;;;;;;;13.02;9.07;;;;;;;;;;5051320;28;20027;-57
2022/09/29 09:20:00;;;;;;;14.60;8.57;;;;;;;;;;5051183;28;20049;-57
2022/09/29 09:22:38;;;;;;;14.95;9.60;;;;;;;;;;5051274;28;20029;-57
2022/09/29 09:25:06;;;;;;;21.98;10.05;;;;;;;;;;5051258;28;20430;-56
2022/09/29 09:27:41;;;;;;;15.25;9.07;;;;;;;;;;5049939;28;20036;-57
2022/09/29 09:30:13;;;;;;;15.13;8.45;;;;;;;;;;5052278;28;20116;-56
2022/09/29 09:32:42;;;;;;;13.88;7.93;;;;;;;;;;5055328;28;20387;-56
2022/09/29 09:35:23;;;;;;;13.50;9.05;;;;;;;;;;5055137;28;20020;-57
2022/09/29 09:37:52;;;;;;;15.65;8.45;;;;;;;;;;5055154;28;20032;-54
2022/09/29 09:40:24;;;;;;;13.90;8.18;;;;;;;;;;5054886;28;20494;-57
2022/09/29 09:42:55;;;;;;;14.98;8.98;;;;;;;;;;5053778;28;20039;-56
2022/09/29 09:45:21;;;;;;;21.63;8.13;;;;;;;;;;5053749;28;20025;-57
2022/09/29 09:47:50;;;;;;;14.65;8.23;;;;;;;;;;5053457;28;20029;-54
2022/09/29 09:50:17;;;;;;;15.55;8.10;;;;;;;;;;5054445;28;20024;-56
2022/09/29 09:52:43;;;;;;;13.07;8.85;;;;;;;;;;5054990;28;20054;-56
2022/09/29 09:55:14;;;;;;;15.15;8.77;;;;;;;;;;5054915;28;20032;-57
2022/09/29 09:57:40;;;;;;;12.40;8.25;;;;;;;;;;5054977;28;20059;-57
2022/09/29 10:00:16;;;;;;;13.63;8.68;;;;;;;;;;5051256;28;20021;-57
2022/09/29 10:02:52;;;;;;;14.88;7.35;;;;;;;;;;5054594;28;20487;-57
2022/09/29 10:05:25;;;;;;;15.20;7.68;;;;;;;;;;5054865;28;20087;-53
2022/09/29 10:07:52;;;;;;;14.30;7.95;;;;;;;;;;5054282;28;20029;-55
2022/09/29 10:10:20;;;;;;;12.18;7.78;;;;;;;;;;5051115;28;20426;-57
2022/09/29 10:12:47;;;;;;;11.18;6.90;;;;;;;;;;5045456;28;20416;-56
2022/09/29 10:15:27;;;;;;;11.07;6.77;;;;;;;;;;5041550;28;20060;-56
2022/09/29 10:18:06;;;;;;;11.13;7.00;;;;;;;;;;5046660;28;20029;-56
2022/09/29 10:20:33;;;;;;;12.18;7.13;;;;;;;;;;5056872;28;20036;-55
2022/09/29 10:23:17;;;;;;;8.15;5.80;;;;;;;;;;5054106;28;20021;-57
2022/09/29 10:25:50;;;;;;;8.80;5.72;;;;;;;;;;5053983;28;20426;-55
2022/09/29 10:28:17;;;;;;;11.40;5.03;;;;;;;;;;5043971;28;20032;-57
2022/09/29 10:30:43;;;;;;;9.88;5.55;;;;;;;;;;5054112;28;20080;-54
2022/09/29 10:33:13;;;;;;;11.35;6.18;;;;;;;;;;5054091;28;20047;-56
2022/09/29 10:35:41;;;;;;;14.52;5.55;;;;;;;;;;5053931;28;20033;-56
2022/09/29 10:38:39;;;;;;;9.60;5.72;;;;;;;;;;5053248;28;20138;-55
2022/09/29 10:41:07;;;;;;;10.30;4.57;;;;;;;;;;5000344;28;20045;-57
2022/09/29 10:43:36;;;;;;;13.10;5.20;;;;;;;;;;5045760;28;20063;-57
2022/09/29 10:46:03;;;;;;;7.30;4.50;;;;;;;;;;5047291;28;20025;-56
2022/09/29 10:48:29;;;;;;;6.82;3.97;;;;;;;;;;5036957;28;21353;-58
2022/09/29 10:50:58;;;;;;;12.27;4.50;;;;;;;;;;5034225;28;20591;-54
2022/09/29 10:53:28;;;;;;;10.45;4.93;;;;;;;;;;5042953;28;20021;-52
2022/09/29 10:55:55;;;;;;;10.20;5.28;;;;;;;;;;5034053;28;20080;-56
2022/09/29 10:58:24;;;;;;;15.77;5.40;;;;;;;;;;5036173;28;20029;-52
2022/09/29 11:01:01;;;;;;;12.45;4.75;;;;;;;;;;5043235;28;20044;-50
2022/09/29 11:03:27;;;;;;;;;;;;;;;;;;5050555;28;20032;-52
2022/09/29 11:05:53;;;;;;;6.80;3.58;;;;;;;;;;5039110;28;19905;-50
2022/09/29 11:08:24;;;;;;;10.40;3.63;;;;;;;;;;5042735;28;20037;-51
2022/09/29 11:11:02;;;;;;;6.97;3.50;;;;;;;;;;5052439;28;20013;-51
2022/09/29 11:13:28;;;;;;;6.28;2.95;;;;;;;;;;5044520;28;20530;-52
2022/09/29 11:16:02;;;;;;;11.07;3.23;;;;;;;;;;5033269;28;20021;-51
2022/09/29 11:18:35;;;;;;;13.00;3.47;;;;;;;;;;5040652;28;20029;-51
2022/09/29 11:21:22;;;;;;;7.45;3.00;;;;;;;;;;5039483;28;20111;-52
2022/09/29 11:24:06;;;;;;;11.23;4.50;;;;;;;;;;5035530;28;20029;-50
2022/09/29 11:26:35;;;;;;;7.90;3.55;;;;;;;;;;5049955;28;20086;-51
2022/09/29 11:29:24;;;;;;;20.27;13.27;;;;;;;;;;5049818;28;20061;-56
2022/09/29 11:32:09;;;;;;;10.93;7.10;;;;;;;;;;5032161;28;20041;-57
2022/09/29 11:34:41;;;;;;;8.73;3.88;;;;;;;;;;5041970;28;20075;-57
2022/09/29 11:37:07;;;;;;;9.82;4.20;;;;;;;;;;5047246;28;20548;-55
2022/09/29 11:39:52;;;;;;;9.00;3.90;;;;;;;;;;5052252;28;20099;-56
2022/09/29 11:42:26;;;;;;;5.82;3.20;;;;;;;;;;5036213;28;20752;-56
2022/09/29 11:44:52;;;;;;;9.23;3.30;;;;;;;;;;5032853;28;20029;-56
2022/09/29 11:47:30;;;;;;;4.77;2.87;;;;;;;;;;5032777;28;20033;-55
2022/09/29 11:50:15;;;;;;;6.70;3.50;;;;;;;;;;5037790;28;20025;-56
2022/09/29 11:52:50;;;;;;;7.68;3.50;;;;;;;;;;5039936;28;20033;-58
2022/09/29 11:55:29;;;;;;;7.43;4.03;;;;;;;;;;5033539;28;20567;-56
2022/09/29 11:58:15;;;;;;;8.38;3.10;;;;;;;;;;5032879;28;20025;-56
2022/09/29 12:00:47;;;;;;;9.82;3.85;;;;;;;;;;5032523;28;20033;-56
2022/09/29 12:03:23;;;;;;;10.65;3.83;;;;;;;;;;5034923;28;20044;-56
2022/09/29 12:06:21;;;;;;;9.90;3.60;;;;;;;;;;5032394;28;20033;-57
2022/09/29 12:08:59;;;;;;;7.03;3.00;;;;;;;;;;4999112;28;20052;-57
2022/09/29 12:11:30;;;;;;;8.68;2.97;;;;;;;;;;5033534;28;20033;-57
2022/09/29 12:14:02;;;;;;;11.85;3.80;;;;;;;;;;5047935;28;20116;-58
2022/09/29 12:16:31;;;;;;;6.97;3.60;;;;;;;;;;5052186;28;20025;-58
2022/09/29 12:19:03;;;;;;;8.98;3.17;;;;;;;;;;5052110;28;20112;-58
2022/09/29 12:21:34;;;;;;;6.85;3.47;;;;;;;;;;5034700;28;20025;-55
2022/09/29 12:24:03;;;;;;;10.90;3.92;;;;;;;;;;5032340;28;20025;-58
2022/09/29 12:26:30;;;;;;;6.57;2.97;;;;;;;;;;5032077;28;20033;-57
2022/09/29 12:28:59;;;;;;;8.15;2.28;;;;;;;;;;5031934;28;20045;-55
2022/09/29 12:31:27;;;;;;;13.20;2.70;;;;;;;;;;5048064;28;20029;-56
2022/09/29 12:34:05;;;;;;;6.35;2.20;;;;;;;;;;5042855;28;20052;-57
2022/09/29 12:36:52;;;;;;;8.40;2.42;;;;;;;;;;5032158;28;20017;-57
2022/09/29 12:39:36;;;;;;;6.63;2.10;;;;;;;;;;5031877;28;20021;-56
2022/09/29 12:42:14;;;;;;;5.95;1.70;;;;;;;;;;5035845;28;20039;-57
2022/09/29 12:44:43;;;;;;;7.63;1.40;;;;;;;;;;5034675;28;20435;-56
2022/09/29 12:47:16;;;;;;;6.28;1.63;;;;;;;;;;5031680;28;20034;-56
2022/09/29 12:49:42;;;;;;;5.72;1.38;;;;;;;;;;5032443;28;20033;-56
2022/09/29 12:52:12;;;;;;;5.33;1.63;;;;;;;;;;5044604;28;20048;-55
2022/09/29 12:54:56;;;;;;;4.93;1.17;;;;;;;;;;5031737;28;20071;-57
2022/09/29 12:57:30;;;;;;;3.92;1.00;;;;;;;;;;5031790;28;20101;-57
2022/09/29 13:00:05;;;;;;;4.45;1.00;;;;;;;;;;5035930;28;20056;-57
2022/09/29 13:03:06;;;;;;;10.13;1.20;;;;;;;;;;5043753;28;20021;-58
2022/09/29 13:05:32;;;;;;;7.03;1.38;;;;;;;;;;4975346;28;20069;-58
2022/09/29 13:08:03;;;;;;;4.35;1.60;;;;;;;;;;5024706;28;20037;-58
2022/09/29 13:10:36;;;;;;;4.95;1.55;;;;;;;;;;5031316;28;20022;-54
2022/09/29 13:13:01;;;;;;;3.65;0.95;;;;;;;;;;5042249;28;20032;-57
2022/09/29 13:15:28;;;;;;;7.63;1.43;;;;;;;;;;5035626;28;20025;-56
2022/09/29 13:18:00;;;;;;;7.23;2.67;;;;;;;;;;5040313;28;20402;-56
2022/09/29 13:20:43;;;;;;;6.82;1.17;;;;;;;;;;5038953;28;20033;-55
2022/09/29 13:23:10;;;;;;;8.23;1.70;;;;;;;;;;5043219;28;20025;-56
2022/09/29 13:25:36;;;;;;;7.38;1.67;;;;;;;;;;5040127;28;20136;-57
2022/09/29 13:28:04;;;;;;;4.10;1.27;;;;;;;;;;5038747;28;20044;-57
2022/09/29 13:30:34;;;;;;;8.07;1.35;;;;;;;;;;5049279;28;20025;-57
2022/09/29 13:33:07;;;;;;;2.33;0.93;;;;;;;;;;5050976;28;20033;-56
2022/09/29 13:35:37;;;;;;;3.75;1.80;;;;;;;;;;5038235;28;20018;-55
2022/09/29 13:38:05;;;;;;;3.55;1.02;;;;;;;;;;5031464;28;20559;-57
2022/09/29 13:40:31;;;;;;;4.50;0.90;;;;;;;;;;5030587;28;20026;-57
2022/09/29 13:42:58;;;;;;;2.40;1.10;;;;;;;;;;5036594;28;20126;-57
2022/09/29 13:45:24;;;;;;;;;;;;;;;;;;5049756;28;20033;-57
2022/09/29 13:47:50;;;;;;;6.88;1.20;;;;;;;;;;5050319;28;19951;-56
2022/09/29 13:50:35;;;;;;;5.27;1.03;;;;;;;;;;5038513;28;20134;-57
2022/09/29 13:53:19;;;;;;;7.28;1.15;;;;;;;;;;5047944;28;20387;-57
2022/09/29 13:55:48;;;;;;;16.02;1.70;;;;;;;;;;5049811;28;20033;-61
2022/09/29 13:58:28;;;;;;;5.38;1.20;;;;;;;;;;5050817;28;20033;-57
2022/09/29 14:00:54;;;;;;;6.13;2.35;;;;;;;;;;5050871;28;20029;-57
2022/09/29 14:03:25;;;;;;;3.92;1.25;;;;;;;;;;5046182;28;20116;-57
2022/09/29 14:06:12;;;;;;;7.40;1.38;;;;;;;;;;5039857;28;20445;-58
2022/09/29 14:08:41;;;;;;;3.50;1.30;;;;;;;;;;5038904;28;20069;-57
2022/09/29 14:11:15;;;;;;;4.68;1.20;;;;;;;;;;5047934;28;20444;-57
2022/09/29 14:13:47;;;;;;;4.95;1.20;;;;;;;;;;5047281;28;20505;-57
2022/09/29 14:16:49;;;;;;;4.15;1.33;;;;;;;;;;5047880;28;20048;-58
2022/09/29 14:19:25;;;;;;;4.53;1.40;;;;;;;;;;4969544;28;20027;-57
2022/09/29 14:21:52;;;;;;;4.55;1.90;;;;;;;;;;5038213;28;20068;-56
2022/09/29 14:24:36;;;;;;;4.43;1.80;;;;;;;;;;5035715;28;20625;-56
2022/09/29 14:27:18;;;;;;;8.10;2.60;;;;;;;;;;5034565;28;20033;-57
2022/09/29 14:29:49;;;;;;;6.63;2.08;;;;;;;;;;5033741;28;20028;-57
2022/09/29 14:32:21;;;;;;;8.38;2.40;;;;;;;;;;5033920;28;20029;-57
2022/09/29 14:34:49;;;;;;;10.85;4.63;;;;;;;;;;5035171;28;20037;-57
2022/09/29 14:37:20;;;;;;;8.88;3.65;;;;;;;;;;5035357;28;20033;-58
2022/09/29 14:40:26;;;;;;;12.07;3.65;;;;;;;;;;5034896;28;20022;-54
2022/09/29 14:42:32;;;;;;;14.60;9.15;;;;;;;;;;5034049;28;20087;-51
2022/09/29 14:53:53;;;;;;;13.48;5.35;;;;;;;;;;5033958;28;20515;-51
2022/09/29 14:56:25;;;;;;;9.80;4.28;;;;;;;;;;5033829;28;20026;-52